createdAt,value
2018-12-12T00:01:15.051Z,4.50
2018-12-12T00:03:49.811Z,4.50
2018-12-12T00:06:24.740Z,4.50
2018-12-12T00:08:59.543Z,4.50
2018-12-12T00:11:34.720Z,4.60
2018-12-12T00:14:05.235Z,4.60
2018-12-12T00:16:40.009Z,4.60
2018-12-12T00:19:14.903Z,4.70
2018-12-12T00:21:49.716Z,4.70
2018-12-12T00:24:24.639Z,4.80
2018-12-12T00:26:53.981Z,4.80
2018-12-12T00:29:28.755Z,4.80
2018-12-12T00:32:04.124Z,4.80
2018-12-12T00:34:38.809Z,4.80
2018-12-12T00:37:13.964Z,4.80
2018-12-12T00:39:48.995Z,4.80
2018-12-12T00:42:23.876Z,4.80
2018-12-12T00:44:58.651Z,4.80
2018-12-12T00:47:33.820Z,4.80
2018-12-12T00:50:09.120Z,4.80
2018-12-12T00:52:44.527Z,4.80
2018-12-12T00:55:19.428Z,4.80
2018-12-12T00:57:54.158Z,4.80
2018-12-12T01:00:28.777Z,4.80
2018-12-12T01:03:04.039Z,4.80
2018-12-12T01:05:38.880Z,4.80
2018-12-12T01:08:13.618Z,4.80
2018-12-12T01:10:50.960Z,4.80
2018-12-12T01:13:25.698Z,4.80
2018-12-12T01:16:00.595Z,4.70
2018-12-12T01:18:35.425Z,4.70
2018-12-12T01:21:10.321Z,4.70
2018-12-12T01:23:45.337Z,4.60
2018-12-12T01:26:20.130Z,4.50
2018-12-12T01:28:54.954Z,4.50
2018-12-12T01:31:29.960Z,4.40
2018-12-12T01:34:05.455Z,4.40
2018-12-12T01:36:40.435Z,4.40
2018-12-12T01:39:09.681Z,4.30
2018-12-12T01:41:44.395Z,4.30
2018-12-12T01:44:19.562Z,4.30
2018-12-12T01:46:54.813Z,4.30
2018-12-12T01:49:29.807Z,4.20
2018-12-12T01:52:04.662Z,4.20
2018-12-12T01:54:39.501Z,4.20
2018-12-12T01:57:15.039Z,4.20
2018-12-12T01:59:50.091Z,4.20
2018-12-12T02:02:24.833Z,4.10
2018-12-12T02:05:00.764Z,4.10
2018-12-12T02:07:35.504Z,4.10
2018-12-12T02:10:10.811Z,4.10
2018-12-12T02:13:53.345Z,4.10
2018-12-12T02:16:28.159Z,4.00
2018-12-12T02:18:57.798Z,4.00
2018-12-12T02:21:32.548Z,3.90
2018-12-12T02:24:07.366Z,3.90
2018-12-12T02:26:42.292Z,3.90
2018-12-12T02:29:17.184Z,3.90
2018-12-12T02:31:51.997Z,3.90
2018-12-12T02:34:26.860Z,3.90
2018-12-12T02:37:02.490Z,3.90
2018-12-12T02:39:37.367Z,3.90
2018-12-12T02:42:12.087Z,4.00
2018-12-12T02:44:46.929Z,3.80
2018-12-12T02:47:21.843Z,4.00
2018-12-12T02:49:56.683Z,4.00
2018-12-12T02:52:31.489Z,4.10
2018-12-12T02:55:07.128Z,4.10
2018-12-12T02:57:41.762Z,4.10
2018-12-12T03:00:16.723Z,4.10
2018-12-12T03:02:45.790Z,4.10
2018-12-12T03:05:21.677Z,4.10
2018-12-12T03:07:56.405Z,4.10
2018-12-12T03:10:31.307Z,4.10
2018-12-12T03:13:06.620Z,4.20
2018-12-12T03:15:41.619Z,4.20
2018-12-12T03:18:16.527Z,4.20
2018-12-12T03:20:51.437Z,4.20
2018-12-12T03:23:26.979Z,4.20
2018-12-12T03:26:01.731Z,4.20
2018-12-12T03:28:36.778Z,4.20
2018-12-12T03:31:11.736Z,4.20
2018-12-12T03:33:47.039Z,4.20
2018-12-12T03:36:21.877Z,4.30
2018-12-12T03:38:56.757Z,4.30
2018-12-12T03:41:32.518Z,4.40
2018-12-12T03:44:07.459Z,4.40
2018-12-12T03:46:42.519Z,4.50
2018-12-12T03:49:17.293Z,4.60
2018-12-12T03:51:52.298Z,4.60
2018-12-12T03:54:22.411Z,4.60
2018-12-12T03:56:57.134Z,4.60
2018-12-12T03:59:31.877Z,4.50
2018-12-12T04:02:06.783Z,4.50
2018-12-12T04:04:36.296Z,4.50
2018-12-12T04:07:11.624Z,4.50
2018-12-12T04:09:46.381Z,4.50
2018-12-12T04:12:21.294Z,4.50
2018-12-12T04:14:56.265Z,4.40
2018-12-12T04:17:31.163Z,4.40
2018-12-12T04:20:06.727Z,4.40
2018-12-12T04:22:41.802Z,4.40
2018-12-12T04:25:16.649Z,4.30
2018-12-12T04:27:51.303Z,4.30
2018-12-12T04:30:26.316Z,4.30
2018-12-12T04:33:01.061Z,4.40
2018-12-12T04:35:35.796Z,4.30
2018-12-12T04:38:11.054Z,4.30
2018-12-12T04:40:45.877Z,4.30
2018-12-12T04:43:20.702Z,4.30
2018-12-12T04:45:55.778Z,4.40
2018-12-12T04:48:30.552Z,4.50
2018-12-12T04:51:05.348Z,4.50
2018-12-12T04:53:40.110Z,4.60
2018-12-12T04:56:21.703Z,4.60
2018-12-12T04:58:57.175Z,4.60
2018-12-12T05:01:31.986Z,4.70
2018-12-12T05:04:06.888Z,4.60
2018-12-12T05:06:41.755Z,4.60
2018-12-12T05:09:16.563Z,4.60
2018-12-12T05:11:51.383Z,4.60
2018-12-12T05:14:26.233Z,4.60
2018-12-12T05:17:00.935Z,4.60
2018-12-12T05:19:35.752Z,4.60
2018-12-12T05:22:10.564Z,4.60
2018-12-12T05:24:45.458Z,4.60
2018-12-12T05:27:20.312Z,4.60
2018-12-12T05:29:55.315Z,4.60
2018-12-12T05:32:29.995Z,4.60
2018-12-12T05:35:05.600Z,4.50
2018-12-12T05:37:40.472Z,4.50
2018-12-12T05:40:16.052Z,4.40
2018-12-12T05:42:51.041Z,4.30
2018-12-12T05:45:26.094Z,4.30
2018-12-12T05:48:01.039Z,4.30
2018-12-12T05:50:35.895Z,4.20
2018-12-12T05:53:10.672Z,4.20
2018-12-12T05:55:45.411Z,4.10
2018-12-12T05:58:20.294Z,4.10
2018-12-12T06:00:55.606Z,4.10
2018-12-12T06:03:30.677Z,4.10
2018-12-12T06:06:05.586Z,4.00
2018-12-12T06:08:40.495Z,4.00
2018-12-12T06:11:15.296Z,4.00
2018-12-12T06:13:50.087Z,4.00
2018-12-12T06:16:25.236Z,4.00
2018-12-12T06:18:59.949Z,4.00
2018-12-12T06:21:34.958Z,3.90
2018-12-12T06:24:09.853Z,3.90
2018-12-12T06:26:47.916Z,3.90
2018-12-12T06:29:22.759Z,3.90
2018-12-12T06:31:57.791Z,3.60
2018-12-12T06:34:32.486Z,3.80
2018-12-12T06:37:07.411Z,3.80
2018-12-12T06:39:42.388Z,3.80
2018-12-12T06:42:17.281Z,3.90
2018-12-12T06:44:52.075Z,3.90
2018-12-12T06:47:26.986Z,3.90
2018-12-12T06:50:01.810Z,3.80
2018-12-12T06:52:36.824Z,3.90
2018-12-12T06:55:11.775Z,3.80
2018-12-12T06:57:47.064Z,3.80
2018-12-12T07:00:22.316Z,3.80
2018-12-12T07:02:57.249Z,3.70
2018-12-12T07:05:32.036Z,3.70
2018-12-12T07:08:07.338Z,3.70
2018-12-12T07:10:41.936Z,3.60
2018-12-12T07:13:16.749Z,3.60
2018-12-12T07:15:51.520Z,3.60
2018-12-12T07:18:26.457Z,3.60
2018-12-12T07:21:01.435Z,3.50
2018-12-12T07:23:36.931Z,3.50
2018-12-12T07:26:11.818Z,3.50
2018-12-12T07:28:46.612Z,3.50
2018-12-12T07:31:21.423Z,3.50
2018-12-12T07:34:00.975Z,3.50
2018-12-12T07:36:33.824Z,3.50
2018-12-12T07:39:09.487Z,3.50
2018-12-12T07:41:45.143Z,3.50
2018-12-12T07:44:19.819Z,3.60
2018-12-12T07:46:55.375Z,3.60
2018-12-12T07:49:30.186Z,3.70
2018-12-12T07:52:05.046Z,3.70
2018-12-12T07:54:39.810Z,3.80
2018-12-12T07:57:14.540Z,3.90
2018-12-12T07:59:49.256Z,4.00
2018-12-12T08:02:24.092Z,4.00
2018-12-12T08:04:58.831Z,4.10
2018-12-12T08:07:33.847Z,4.10
2018-12-12T08:10:09.467Z,4.20
2018-12-12T08:12:44.420Z,4.20
2018-12-12T08:15:19.220Z,4.20
2018-12-12T08:17:53.844Z,4.30
2018-12-12T08:20:29.179Z,4.30
2018-12-12T08:23:04.345Z,4.40
2018-12-12T08:25:39.645Z,4.40
2018-12-12T08:28:14.471Z,4.40
2018-12-12T08:30:49.536Z,4.40
2018-12-12T08:33:24.295Z,4.40
2018-12-12T08:35:59.431Z,4.40
2018-12-12T08:38:34.318Z,4.40
2018-12-12T08:41:09.139Z,4.40
2018-12-12T08:43:45.029Z,4.50
2018-12-12T08:46:19.935Z,4.50
2018-12-12T08:48:55.065Z,4.60
2018-12-12T08:51:30.576Z,4.70
2018-12-12T08:54:05.516Z,4.80
2018-12-12T08:56:40.401Z,4.90
2018-12-12T08:59:15.163Z,5.00
2018-12-12T09:01:49.851Z,5.00
2018-12-12T09:04:24.764Z,5.10
2018-12-12T09:06:59.687Z,5.10
2018-12-12T09:09:34.932Z,5.20
2018-12-12T09:12:10.413Z,5.30
2018-12-12T09:14:45.159Z,5.30
2018-12-12T09:17:20.456Z,5.40
2018-12-12T09:19:55.304Z,5.40
2018-12-12T09:22:30.782Z,5.40
2018-12-12T09:25:06.572Z,5.40
2018-12-12T09:27:41.355Z,5.50
2018-12-12T09:30:16.365Z,5.50
2018-12-12T09:32:51.470Z,5.50
2018-12-12T09:35:26.828Z,5.50
2018-12-12T09:38:02.191Z,5.50
2018-12-12T09:40:37.828Z,5.60
2018-12-12T09:43:12.628Z,5.60
2018-12-12T09:45:47.639Z,5.70
2018-12-12T09:48:22.713Z,5.70
2018-12-12T09:50:57.313Z,5.80
2018-12-12T09:53:32.227Z,5.80
2018-12-12T09:56:07.379Z,5.80
2018-12-12T09:58:42.143Z,5.90
2018-12-12T10:01:17.100Z,5.90
2018-12-12T10:03:51.891Z,6.00
2018-12-12T10:06:26.984Z,6.00
2018-12-12T10:09:01.648Z,6.10
2018-12-12T10:11:36.707Z,6.10
2018-12-12T10:14:11.438Z,6.20
2018-12-12T10:16:46.163Z,6.20
2018-12-12T10:19:21.016Z,6.20
2018-12-12T10:21:56.397Z,6.30
2018-12-12T10:24:35.068Z,6.30
2018-12-12T10:27:10.096Z,6.30
2018-12-12T10:29:44.828Z,6.40
2018-12-12T10:32:19.642Z,6.50
2018-12-12T10:34:54.476Z,6.50
2018-12-12T10:37:29.291Z,6.60
2018-12-12T10:40:05.111Z,6.60
2018-12-12T10:42:40.204Z,6.70
2018-12-12T10:45:15.180Z,6.70
2018-12-12T10:47:49.946Z,6.80
2018-12-12T10:50:24.605Z,6.80
2018-12-12T10:52:59.420Z,6.80
2018-12-12T10:55:34.421Z,6.90
2018-12-12T10:58:09.240Z,6.90
2018-12-12T11:00:48.338Z,6.90
2018-12-12T11:03:44.314Z,6.90
2018-12-12T11:06:18.217Z,6.90
2018-12-12T11:08:53.000Z,6.90
2018-12-12T11:11:28.332Z,6.90
2018-12-12T11:14:03.948Z,6.90
2018-12-12T11:16:38.657Z,7.00
2018-12-12T11:19:13.538Z,7.00
2018-12-12T11:21:48.605Z,7.00
2018-12-12T11:24:23.254Z,7.00
2018-12-12T11:26:58.361Z,7.10
2018-12-12T11:29:32.964Z,7.10
2018-12-12T11:32:07.715Z,7.10
2018-12-12T11:34:42.788Z,7.10
2018-12-12T11:37:18.118Z,7.10
2018-12-12T11:39:53.031Z,7.10
2018-12-12T11:42:27.874Z,7.10
2018-12-12T11:45:02.769Z,7.10
2018-12-12T11:47:37.681Z,7.20
2018-12-12T11:50:12.997Z,7.20
2018-12-12T11:52:48.005Z,7.20
2018-12-12T11:55:22.832Z,7.30
2018-12-12T11:57:57.520Z,7.20
2018-12-12T12:00:32.164Z,7.20
2018-12-12T12:03:07.202Z,7.20
2018-12-12T12:05:41.887Z,7.20
2018-12-12T12:08:16.661Z,7.30
2018-12-12T12:10:51.721Z,7.20
2018-12-12T12:13:26.389Z,7.10
2018-12-12T12:16:01.231Z,7.00
2018-12-12T12:18:36.019Z,6.90
2018-12-12T12:21:11.258Z,6.80
2018-12-12T12:23:45.959Z,6.70
2018-12-12T12:26:21.263Z,6.70
2018-12-12T12:28:56.848Z,6.70
2018-12-12T12:31:31.587Z,6.70
2018-12-12T12:34:06.736Z,6.70
2018-12-12T12:36:41.960Z,6.70
2018-12-12T12:39:16.979Z,6.80
2018-12-12T12:41:51.951Z,6.80
2018-12-12T12:44:26.822Z,6.70
2018-12-12T12:47:01.868Z,6.70
2018-12-12T12:49:36.667Z,6.60
2018-12-12T12:52:11.455Z,6.60
2018-12-12T12:54:46.352Z,6.60
2018-12-12T12:57:20.994Z,6.60
2018-12-12T12:59:55.946Z,6.60
2018-12-12T13:02:30.780Z,6.60
2018-12-12T13:05:07.090Z,6.70
2018-12-12T13:07:41.980Z,6.70
2018-12-12T13:10:17.120Z,6.70
2018-12-12T13:12:52.636Z,6.70
2018-12-12T13:15:27.994Z,6.80
2018-12-12T13:18:03.259Z,6.80
2018-12-12T13:20:39.204Z,6.70
2018-12-12T13:23:14.872Z,6.70
2018-12-12T13:25:50.184Z,6.60
2018-12-12T13:28:25.029Z,6.60
2018-12-12T13:31:00.011Z,6.50
2018-12-12T13:33:34.939Z,6.50
2018-12-12T13:36:09.930Z,6.50
2018-12-12T13:38:44.656Z,6.50
2018-12-12T13:41:19.620Z,6.50
2018-12-12T13:43:54.485Z,6.40
2018-12-12T13:46:29.964Z,6.30
2018-12-12T13:49:04.913Z,6.20
2018-12-12T13:51:39.914Z,6.20
2018-12-12T13:54:14.989Z,6.20
2018-12-12T13:56:49.739Z,6.20
2018-12-12T13:59:25.388Z,6.20
2018-12-12T14:02:00.311Z,6.20
2018-12-12T14:04:35.338Z,6.20
2018-12-12T14:07:11.870Z,6.20
2018-12-12T14:09:47.409Z,6.30
2018-12-12T14:12:22.522Z,6.30
2018-12-12T14:14:57.470Z,6.20
2018-12-12T14:17:32.457Z,6.30
2018-12-12T14:20:08.191Z,6.20
2018-12-12T14:22:48.103Z,6.30
2018-12-12T14:25:23.259Z,6.20
2018-12-12T14:27:58.534Z,6.20
2018-12-12T14:30:33.433Z,6.20
2018-12-12T14:33:08.534Z,6.20
2018-12-12T14:35:43.440Z,6.10
2018-12-12T14:38:18.327Z,6.10
2018-12-12T14:40:53.166Z,6.10
2018-12-12T14:43:28.152Z,6.20
2018-12-12T14:46:03.177Z,6.20
2018-12-12T14:48:38.163Z,6.20
2018-12-12T14:51:13.107Z,6.20
2018-12-12T14:53:48.055Z,6.20
2018-12-12T14:56:22.927Z,6.20
2018-12-12T14:58:58.531Z,6.10
2018-12-12T15:01:33.736Z,6.10
2018-12-12T15:04:08.368Z,6.10
2018-12-12T15:06:43.514Z,6.10
2018-12-12T15:09:18.505Z,6.00
2018-12-12T15:11:53.454Z,6.00
2018-12-12T15:14:28.172Z,6.00
2018-12-12T15:17:03.698Z,5.90
2018-12-12T15:19:38.624Z,5.90
2018-12-12T15:22:13.968Z,5.90
2018-12-12T15:24:48.649Z,5.90
2018-12-12T15:27:23.554Z,5.80
2018-12-12T15:29:58.707Z,5.80
2018-12-12T15:32:33.687Z,5.80
2018-12-12T15:35:08.574Z,5.70
2018-12-12T15:37:43.592Z,5.60
2018-12-12T15:40:18.420Z,5.60
2018-12-12T15:42:53.244Z,5.50
2018-12-12T15:45:27.968Z,5.40
2018-12-12T15:48:03.261Z,5.40
2018-12-12T15:50:38.271Z,5.30
2018-12-12T15:53:13.091Z,5.30
2018-12-12T15:55:48.156Z,5.20
2018-12-12T15:58:23.156Z,5.20
2018-12-12T16:00:58.161Z,5.10
2018-12-12T16:03:33.108Z,5.10
2018-12-12T16:06:07.884Z,5.00
2018-12-12T16:08:42.847Z,5.00
2018-12-12T16:11:17.589Z,5.00
2018-12-12T16:13:52.280Z,4.90
2018-12-12T16:16:27.243Z,4.90
2018-12-12T16:19:02.299Z,4.80
2018-12-12T16:21:38.384Z,4.80
2018-12-12T16:24:13.108Z,4.70
2018-12-12T16:26:48.342Z,4.70
2018-12-12T16:29:23.607Z,4.70
2018-12-12T16:31:58.496Z,4.70
2018-12-12T16:34:33.431Z,4.70
2018-12-12T16:37:08.118Z,4.70
2018-12-12T16:39:42.819Z,4.70
2018-12-12T16:42:17.648Z,4.60
2018-12-12T16:44:52.667Z,4.60
2018-12-12T16:47:27.728Z,4.60
2018-12-12T16:50:03.846Z,4.60
2018-12-12T16:52:38.791Z,4.50
2018-12-12T16:55:13.903Z,4.50
2018-12-12T16:57:49.308Z,4.40
2018-12-12T17:00:24.263Z,4.40
2018-12-12T17:02:59.158Z,4.40
2018-12-12T17:05:34.379Z,4.40
2018-12-12T17:08:09.245Z,4.30
2018-12-12T17:10:44.332Z,4.30
2018-12-12T17:13:19.690Z,4.30
2018-12-12T17:15:54.544Z,4.20
2018-12-12T17:18:29.408Z,4.20
2018-12-12T17:21:05.585Z,4.20
2018-12-12T17:23:40.480Z,4.20
2018-12-12T17:26:15.706Z,4.20
2018-12-12T17:28:50.983Z,4.20
2018-12-12T17:31:26.195Z,4.20
2018-12-12T17:34:01.041Z,4.20
2018-12-12T17:36:36.566Z,4.10
2018-12-12T17:39:11.552Z,4.10
2018-12-12T17:41:46.301Z,4.10
2018-12-12T17:44:21.217Z,4.10
2018-12-12T17:46:56.215Z,4.10
2018-12-12T17:49:31.602Z,4.10
2018-12-12T17:52:07.302Z,4.00
2018-12-12T17:54:42.388Z,4.00
2018-12-12T17:57:17.130Z,4.00
2018-12-12T17:59:51.938Z,4.00
2018-12-12T18:02:27.042Z,4.00
2018-12-12T18:05:01.917Z,4.00
2018-12-12T18:07:37.379Z,3.90
2018-12-12T18:10:12.347Z,4.00
2018-12-12T18:12:48.328Z,3.90
2018-12-12T18:15:23.262Z,3.90
2018-12-12T18:17:58.709Z,3.90
2018-12-12T18:20:33.767Z,3.90
2018-12-12T18:23:09.412Z,3.90
2018-12-12T18:25:44.472Z,3.90
2018-12-12T18:28:19.359Z,3.90
2018-12-12T18:30:54.401Z,3.90
2018-12-12T18:33:29.123Z,3.90
2018-12-12T18:36:04.217Z,3.90
2018-12-12T18:38:39.165Z,3.90
2018-12-12T18:41:14.185Z,3.90
2018-12-12T18:43:49.029Z,3.90
2018-12-12T18:46:24.103Z,3.90
2018-12-12T18:48:59.065Z,3.90
2018-12-12T18:51:34.210Z,3.90
2018-12-12T18:54:09.554Z,3.90
2018-12-12T18:56:44.569Z,3.90
2018-12-12T18:59:19.419Z,3.90
2018-12-12T19:01:54.462Z,3.90
2018-12-12T19:04:29.398Z,3.90
2018-12-12T19:07:04.568Z,3.90
2018-12-12T19:09:39.756Z,3.90
2018-12-12T19:12:15.056Z,3.90
2018-12-12T19:14:59.060Z,3.90
2018-12-12T19:17:34.152Z,3.90
2018-12-12T19:20:09.996Z,3.90
2018-12-12T19:22:45.216Z,3.90
2018-12-12T19:25:20.429Z,3.90
2018-12-12T19:27:55.573Z,3.90
2018-12-12T19:30:30.658Z,3.90
2018-12-12T19:33:05.597Z,3.80
2018-12-12T19:35:40.669Z,3.80
2018-12-12T19:38:15.963Z,3.80
2018-12-12T19:40:51.038Z,3.80
2018-12-12T19:43:26.450Z,3.80
2018-12-12T19:46:01.844Z,3.80
2018-12-12T19:48:37.024Z,3.80
2018-12-12T19:51:11.879Z,3.80
2018-12-12T19:53:47.045Z,3.80
2018-12-12T19:56:22.218Z,3.80
2018-12-12T19:58:57.722Z,3.80
2018-12-12T20:01:32.653Z,3.70
2018-12-12T20:04:07.675Z,3.70
2018-12-12T20:06:42.756Z,3.70
2018-12-12T20:09:18.100Z,3.70
2018-12-12T20:11:53.180Z,3.70
2018-12-12T20:14:27.983Z,3.70
2018-12-12T20:17:03.252Z,3.70
2018-12-12T20:19:38.232Z,3.70
2018-12-12T20:22:13.247Z,3.70
2018-12-12T20:24:48.393Z,3.80
2018-12-12T20:27:23.436Z,3.90
2018-12-12T20:29:58.332Z,3.90
2018-12-12T20:32:33.266Z,4.00
2018-12-12T20:35:08.396Z,4.10
2018-12-12T20:37:46.718Z,4.20
2018-12-12T20:40:21.433Z,4.30
2018-12-12T20:42:56.592Z,4.30
2018-12-12T20:45:32.093Z,4.40
2018-12-12T20:48:07.313Z,4.40
2018-12-12T20:50:42.131Z,4.50
2018-12-12T20:53:17.185Z,4.60
2018-12-12T20:55:51.981Z,4.60
2018-12-12T20:58:27.374Z,4.60
2018-12-12T21:01:02.114Z,4.70
2018-12-12T21:03:37.719Z,4.70
2018-12-12T21:06:12.837Z,4.70
2018-12-12T21:08:48.354Z,4.80
2018-12-12T21:11:24.653Z,4.80
2018-12-12T21:14:00.342Z,4.80
2018-12-12T21:16:36.643Z,4.90
2018-12-12T21:19:13.354Z,5.00
2018-12-12T21:21:48.567Z,5.00
2018-12-12T21:24:24.308Z,5.00
2018-12-12T21:26:59.364Z,5.00
2018-12-12T21:29:34.310Z,5.00
2018-12-12T21:32:09.287Z,5.00
2018-12-12T21:34:44.448Z,5.00
2018-12-12T21:37:19.318Z,5.00
2018-12-12T21:39:55.105Z,5.00
2018-12-12T21:42:30.014Z,5.00
2018-12-12T21:45:05.539Z,5.00
2018-12-12T21:47:40.538Z,5.00
2018-12-12T21:50:15.301Z,5.00
2018-12-12T21:52:50.202Z,5.00
2018-12-12T21:55:25.294Z,5.00
2018-12-12T21:58:01.156Z,5.00
2018-12-12T22:00:36.277Z,5.00
2018-12-12T22:03:11.218Z,5.00
2018-12-12T22:05:46.817Z,5.00
2018-12-12T22:08:21.847Z,5.00
2018-12-12T22:10:57.053Z,5.10
2018-12-12T22:13:31.787Z,5.00
2018-12-12T22:16:07.448Z,5.00
2018-12-12T22:18:42.608Z,5.00
2018-12-12T22:21:17.765Z,5.00
2018-12-12T22:23:52.688Z,5.00
2018-12-12T22:26:28.130Z,4.90
2018-12-12T22:29:06.616Z,5.00
2018-12-12T22:31:41.352Z,5.00
2018-12-12T22:34:16.349Z,4.90
2018-12-12T22:36:51.725Z,4.90
2018-12-12T22:39:26.925Z,4.90
2018-12-12T22:42:01.957Z,5.00
2018-12-12T22:44:37.177Z,5.00
2018-12-12T22:47:11.907Z,5.00
2018-12-12T22:49:47.024Z,5.00
2018-12-12T22:52:21.743Z,5.00
2018-12-12T22:54:57.062Z,5.00
2018-12-12T22:57:32.228Z,5.00
2018-12-12T23:00:14.176Z,5.00
2018-12-12T23:02:48.879Z,5.10
2018-12-12T23:05:23.791Z,5.10
2018-12-12T23:07:58.491Z,5.10
2018-12-12T23:10:33.342Z,5.00
2018-12-12T23:13:08.465Z,5.00
2018-12-12T23:15:43.103Z,5.00
2018-12-12T23:18:17.953Z,4.90
2018-12-12T23:20:52.897Z,4.80
2018-12-12T23:23:27.641Z,4.70
2018-12-12T23:26:02.577Z,4.70
2018-12-12T23:28:37.576Z,4.70
2018-12-12T23:31:12.273Z,4.70
2018-12-12T23:33:47.029Z,4.70
2018-12-12T23:36:26.915Z,4.70
2018-12-12T23:38:59.440Z,4.80
2018-12-12T23:41:34.906Z,4.80
2018-12-12T23:44:09.857Z,4.80
2018-12-12T23:46:44.777Z,4.80
2018-12-12T23:49:19.675Z,4.80
2018-12-12T23:51:54.507Z,4.80
2018-12-12T23:54:29.400Z,4.80
2018-12-12T23:57:04.200Z,4.80
2018-12-12T23:59:39.049Z,4.80
